Home > Products > Valid Products > TAF

000
FTUS44 KJAN 230600 AAA
TAFJAN
TAF AMD
KJAN 230611Z 2306/2406 00000KT 1SM BR SCT002
     FM231300 04005KT P6SM SKC
     FM240000 12003KT P6SM SKC=



000
FTUS44 KJAN 230500
TAFGLH
TAF
KGLH 230535Z 2306/2406 02004KT P6SM SKC
     FM231400 08007KT P6SM SKC
     FM240000 10005KT P6SM SCT250=



000
FTUS44 KJAN 230500
TAFJAN
TAF
KJAN 230535Z 2306/2406 VRB03KT 5SM BR FEW040
     FM231300 04005KT P6SM SKC
     FM240000 12003KT P6SM SKC=



000
FTUS44 KJAN 230500
TAFHBG
TAF
KHBG 230535Z 2306/2406 00000KT 4SM BR FEW008
     FM230730 00000KT 2SM BR BKN003
     FM230930 00000KT 1/4SM FG OVC001
     FM231300 00000KT 1/2SM FG OVC001
     FM231400 03003KT 4SM BR BKN003
     FM231500 03006KT P6SM FEW025
     FM240000 VRB03KT P6SM SKC=



000
FTUS44 KJAN 230500
TAFMEI
TAF
KMEI 230535Z 2306/2406 VRB03KT 1/4SM FG VV002
     FM231330 02005KT 3SM BR BKN005
     FM231430 01005KT P6SM FEW025
     FM240000 VRB03KT P6SM SKC=



000
FTUS44 KJAN 230500
TAFGWO
TAF
KGWO 230535Z 2306/2406 02003KT 3SM BR SKC
     FM231300 06005KT P6SM SKC
     FM240000 11003KT P6SM FEW250=



000
FTUS44 KJAN 230300 AAA
TAFHBG
TAF AMD
KHBG 230350Z 2304/2324 00000KT 4SM BR SCT010
     FM230900 00000KT 2SM BR BKN003
     FM231100 00000KT 1/4SM FG OVC001
     FM231300 00000KT 1/2SM FG OVC001
     FM231400 03003KT 4SM BR BKN003
     FM231600 05005KT P6SM SKC=



000
FTUS44 KJAN 230200 AAB
TAFMEI
TAF AMD
KMEI 230254Z 2303/2324 00000KT 1/4SM FG VV002
     FM231300 02005KT 3SM BR SCT003
     FM231600 01005KT P6SM SKC=



000
FTUS44 KJAN 230100 AAA
TAFMEI
TAF AMD
KMEI 230124Z 2301/2324 00000KT 1SM BR OVC002
     FM230600 35002KT 1/2SM FG VV002
     FM231000 02003KT 1/4SM FG VV001
     FM231400 02005KT 3SM BR SCT003
     FM231600 01005KT P6SM SKC=



000
FTUS44 KJAN 222300
TAFGWO
TAF
KGWO 222320Z 2300/2324 36004KT P6SM SKC
     FM231400 06006KT P6SM SKC=



000
FTUS44 KJAN 222300
TAFGLH
TAF
KGLH 222320Z 2300/2324 36006KT P6SM SKC
     FM231400 05008KT P6SM SKC=



000
FTUS44 KJAN 222300
TAFHBG
TAF
KHBG 222320Z 2300/2324 32004KT P6SM SCT025 BKN050
     FM230500 00000KT 6SM BR SCT010
     FM230900 00000KT 4SM BR BKN003
     FM231100 00000KT 1/4SM FG OVC001
     FM231300 00000KT 1/2SM FG OVC001
     FM231400 03003KT 4SM BR BKN003
     FM231600 05005KT P6SM SKC=



000
FTUS44 KJAN 222300
TAFJAN
TAF
KJAN 222320Z 2300/2324 36004KT P6SM SCT040
     FM231100 01002KT 4SM BR SKC
     FM231300 05005KT P6SM SKC=



000
FTUS44 KJAN 222300
TAFMEI
TAF
KMEI 222320Z 2300/2324 33002KT P6SM SCT015 BKN035
     FM230600 35002KT 6SM BR BKN015
     FM230900 35002KT 4SM BR OVC003
     FM231200 02003KT 2SM BR OVC003
     FM231400 02005KT 4SM BR SCT005
     FM231600 01005KT P6SM SKC=



000
FTUS44 KJAN 221900 AAA
TAFJAN
TAF AMD
KJAN 221924Z 2219/2318 32005KT P6SM SCT015 BKN025
     FM221930 34006KT P6SM BKN035 BKN060
     FM230200 36004KT P6SM SKC
     FM231300 03002KT 6SM BR SKC=



000
FTUS44 KJAN 221700
TAFGWO
TAF
KGWO 221740Z 2218/2318 36007KT P6SM SCT020 BKN040
     FM222100 36009KT P6SM SCT030 SCT050
     FM230100 01004KT P6SM SKC
     FM231400 06005KT P6SM SKC=



000
FTUS44 KJAN 221700
TAFHBG
TAF
KHBG 221740Z 2218/2318 29008KT P6SM VCSH OVC012
     FM222300 32007KT P6SM BKN015 OVC025
     FM230300 33003KT P6SM SKC
     FM231000 VRB03KT 1/2SM FG VV004
     FM231500 05004KT P6SM FEW250=



000
FTUS44 KJAN 221700
TAFMEI
TAF
KMEI 221740Z 2218/2318 28006KT P6SM VCSH BKN007 OVC020
     FM221830 31009KT P6SM BKN015 BKN025
     FM230100 35004KT P6SM SCT030
     FM231000 36003KT 4SM BR SCT004
     FM231500 02006KT P6SM SKC=



000
FTUS44 KJAN 221700
TAFGLH
TAF
KGLH 221740Z 2218/2318 34010KT P6SM SCT020 BKN030
     FM222000 02014KT P6SM SCT020 BKN035
     FM230100 36006KT P6SM SKC
     FM231300 04006KT P6SM SKC=



000
FTUS44 KJAN 221700
TAFJAN
TAF
KJAN 221740Z 2218/2318 32005KT P6SM BKN015 OVC025
     FM222100 34009KT P6SM BKN025 BKN040
     FM230200 36004KT P6SM SKC
     FM231300 03002KT 6SM BR SKC=



000
FTUS44 KJAN 221500 AAD
TAFGWO
TAF AMD
KGWO 221555Z 2216/2312 36007KT P6SM VCSH SCT010 BKN040 BKN090
     FM222000 36009KT P6SM SCT030 SCT050
     FM230100 01004KT P6SM SKC=



000
FTUS44 KJAN 221500 AAB
TAFJAN
TAF AMD
KJAN 221550Z 2216/2312 22005KT 5SM BR VCSH OVC006
     FM221730 32007KT P6SM VCSH BKN020 BKN040
     FM222100 34009KT P6SM SCT030 BKN050
     FM230100 36004KT P6SM SKC=



000
FTUS44 KJAN 221400 AAA
TAFHBG
TAF AMD
KHBG 221437Z 2215/2312 25006KT P6SM VCSH BKN010 BKN080
     FM221800 29008KT P6SM VCTS BKN030 BKN050CB
     FM222300 32007KT P6SM SCT050
     FM230130 33003KT P6SM SKC
     FM230900 VRB03KT 1/2SM FG VV004=



000
FTUS44 KJAN 221400 AAB
TAFGLH
TAF AMD
KGLH 221436Z 2215/2312 03009KT 5SM BR SCT010 BKN040
     FM221500 03011KT P6SM BKN007 BKN030
     FM221900 02014KT P6SM SCT030 SCT050
     FM230100 36006KT P6SM SKC=



000
FTUS44 KJAN 221400 AAC
TAFGWO
TAF AMD
KGWO 221433Z 2215/2312 34005KT 3SM BR VCSH OVC004
     FM221500 36007KT P6SM VCSH BKN020 BKN050
     FM222000 36009KT P6SM SCT030 SCT050
     FM230100 01004KT P6SM SKC=



000
FTUS44 KJAN 221400 AAA
TAFJAN
TAF AMD
KJAN 221429Z 2214/2312 22005KT 6SM BR VCSH OVC007
     FM221700 32007KT P6SM VCSH BKN020 BKN040
     FM222100 34009KT P6SM SCT030 BKN050
     FM230100 36004KT P6SM SKC=



000
FTUS44 KJAN 221300 AAA
TAFGLH
TAF AMD
KGLH 221304Z 2213/2312 36005KT 4SM BR BKN005 BKN025 OVC035
     FM221400 34009KT 6SM BR BKN010 BKN020
     FM221630 35011KT P6SM BKN020 BKN040
     FM221900 35014KT P6SM SCT030 SCT050
     FM230100 36006KT P6SM SKC=



000
FTUS44 KJAN 221300 AAB
TAFJAN
TAF AMD
KJAN 221302Z 2213/2312 18005KT 6SM BR BKN009 OVC020
     FM221330 29005KT P6SM VCSH BKN015 BKN040
     FM221600 32007KT P6SM VCSH BKN020 BKN050
     FM222100 34009KT P6SM SCT030 BKN050
     FM230100 36004KT P6SM SKC=



000
FTUS44 KJAN 221200 AAB
TAFGWO
TAF AMD
KGWO 221236Z 2213/2312 VRB05KT 3SM -SHRA BR FEW010 BKN015
     FM221330 34005KT 6SM BR VCSH BKN015 BKN030
     FM221700 36007KT P6SM VCSH BKN020 BKN050
     FM222000 36009KT P6SM SCT030 SCT050
     FM230100 01004KT P6SM SKC=



000
FTUS44 KJAN 221200 AAA
TAFGWO
TAF AMD
KGWO 221236Z 2213/2312 VRB05KT 3SM -SHRA BR FEW010 BKN015
     FM221330 34005KT 6SM BR VCSH BKN015 BKN030
     FM221700 36007KT P6SM VCSH BKN020 BKN050
     FM222000 36009KT P6SM SCT030 SCT050
     FM230100 01004KT P6SM SKC=



000
FTUS44 KJAN 221200 AAA
TAFJAN
TAF AMD
KJAN 221235Z 2213/2312 18005KT P6SM -SHRA BKN018 BKN050CB
     FM221330 29005KT P6SM VCSH BKN015 BKN040
     FM221600 32007KT P6SM VCSH BKN020 BKN050
     FM222100 34009KT P6SM SCT030 BKN050
     FM230100 36004KT P6SM SKC=



000
FTUS44 KJAN 221100
TAFGLH
TAF
KGLH 221124Z 2212/2312 36005KT 5SM BR BKN005 OVC010
     FM221400 34009KT 6SM BR BKN010 BKN020
     FM221630 35011KT P6SM BKN020 BKN040
     FM221900 35014KT P6SM SCT030 SCT050
     FM230100 36006KT P6SM SKC=



000
FTUS44 KJAN 221100
TAFMEI
TAF
KMEI 221124Z 2212/2312 21004KT 6SM BR FEW015 BKN100
     FM221330 25005KT P6SM -SHRA SCT015 BKN030 OVC080
     FM221530 28006KT P6SM VCSH BKN020 BKN050
     FM222130 31009KT P6SM SCT030 BKN050
     FM230100 35004KT P6SM FEW050
     FM231000 36003KT 5SM BR FEW004=



000
FTUS44 KJAN 221100
TAFGWO
TAF
KGWO 221124Z 2212/2312 VRB05KT 6SM -SHRA BR FEW010 BKN025
     FM221330 34005KT 6SM BR VCSH BKN015 BKN030
     FM221700 36007KT P6SM VCSH BKN020 BKN050
     FM222000 36009KT P6SM SCT030 SCT050
     FM230100 01004KT P6SM SKC=



000
FTUS44 KJAN 221100
TAFJAN
TAF
KJAN 221124Z 2212/2312 21005KT P6SM -SHRA VCTS SCT020 BKN050CB
     FM221330 29005KT P6SM VCSH BKN015 BKN040
     FM221600 32007KT P6SM VCSH BKN020 BKN050
     FM222100 34009KT P6SM SCT030 BKN050
     FM230100 36004KT P6SM SKC=



000
FTUS44 KJAN 221100
TAFHBG
TAF
KHBG 221124Z 2212/2312 22003KT 1SM BR OVC004
     FM221330 24004KT 5SM BR OVC007
     FM221400 27006KT P6SM VCSH SCT010 BKN025 BKN080
     FM221800 29008KT P6SM VCTS BKN030 BKN050CB
     FM222300 32007KT P6SM SCT050
     FM230130 33003KT P6SM SKC
     FM230900 VRB03KT 1/2SM FG VV004=



000
FTUS44 KJAN 221100 AAA
TAFHBG
TAF AMD
KHBG 221119Z 2211/2306 20004KT 1SM BR OVC004
     FM221330 24003KT 3SM BR OVC007
     FM221430 27006KT P6SM SCT015 BKN030
     FM221900 29008KT P6SM VCTS BKN030 BKN050CB
     FM230000 32003KT P6SM SCT050=



000
FTUS44 KJAN 220500 RRA
TAFGWO
TAF
KGWO 220548Z 2206/2306 VRB05KT P6SM -SHRA FEW050 BKN080
     FM220730 VRB05KT 6SM -SHRA VCTS SCT025 BKN050CB
      TEMPO 2210/2213 BKN025CB
     FM221300 34005KT 6SM BR VCSH OVC015
     FM221630 35006KT P6SM VCSH BKN020 BKN050
     FM222000 35009KT P6SM SCT030 SCT050
     FM230100 01004KT P6SM SKC=



000
FTUS44 KJAN 220500 RRA
TAFHBG
TAF
KHBG 220548Z 2206/2306 19004KT P6SM FEW040 BKN250
     FM221000 21003KT 4SM BR OVC015
     FM221100 22003KT 1/4SM FG OVC004
     FM221330 24003KT 3SM BR OVC007
     FM221430 27006KT P6SM SCT015 BKN030
     FM221900 29008KT P6SM VCTS BKN030 BKN050CB
     FM230000 32003KT P6SM SCT050=



000
FTUS44 KJAN 220500 RRA
TAFMEI
TAF
KMEI 220548Z 2206/2306 20005KT P6SM BKN100
     FM221000 21004KT 5SM BR OVC015
     FM221500 25005KT 6SM BR VCSH BKN015 OVC030
     FM221800 29006KT P6SM VCSH BKN020 BKN050
     FM222230 32007KT P6SM SCT030 BKN050
     FM230100 35004KT P6SM SCT050=



000
FTUS44 KJAN 220500 RRA
TAFGLH
TAF
KGLH 220548Z 2206/2306 34005KT 6SM -SHRA VCTS SCT025 BKN050CB
      TEMPO 2207/2211 BKN025CB
     FM221100 34007KT 5SM BR VCSH OVC015
     FM221600 35011KT P6SM BKN020 BKN050
     FM221900 35012KT P6SM SCT030 SCT050
     FM230100 36007KT P6SM SKC=



000
FTUS44 KJAN 220500 RRA
TAFJAN
TAF
KJAN 220548Z 2206/2306 19008KT P6SM FEW050 BKN100
     FM221100 21006KT P6SM VCSH BKN010 OVC050
     FM221300 22006KT 6SM -SHRA VCTS BKN015 BKN040CB
     FM221600 32006KT P6SM VCSH BKN020 BKN050
     FM222100 34007KT P6SM SCT030 BKN050
     FM230100 35004KT P6SM FEW050=



000
FTUS44 KJAN 212300
TAFGLH
TAF
KGLH 212320Z 2200/2224 19008KT P6SM VCTS SCT040CB OVC100
     FM220500 VRB05KT P6SM VCSH SCT025 OVC050
     FM220900 30008KT 6SM BR OVC025
     FM221100 33006KT 4SM BR OVC015
     FM221300 35009KT 4SM BR OVC007
     FM221500 35011KT P6SM OVC007
     FM222000 36012KT P6SM BKN050=



000
FTUS44 KJAN 212300
TAFMEI
TAF
KMEI 212320Z 2200/2224 18004KT P6SM SCT050 BKN100
     FM220500 21003KT P6SM OVC100
     FM220900 21002KT 4SM BR OVC015
     FM221400 25004KT 6SM BR OVC007
     FM221600 VRB05KT P6SM OVC015
     FM221900 32008KT P6SM BKN050=



000
FTUS44 KJAN 212300
TAFHBG
TAF
KHBG 212320Z 2200/2224 18005KT P6SM BKN040
     FM221000 24002KT 4SM BR OVC015
     FM221100 26002KT 1/4SM FG OVC005
     FM221300 27003KT 1 1/2SM BR OVC007
     FM221400 27004KT 6SM BR OVC015
     FM221600 30006KT P6SM OVC025
     FM221900 31007KT P6SM BKN050=



000
FTUS44 KJAN 212300
TAFGWO
TAF
KGWO 212320Z 2200/2224 19004KT P6SM VCTS SCT050CB OVC100
     FM220200 18003KT P6SM VCSH OVC050
     FM220900 VRB03KT 6SM BR OVC025
     FM221200 34003KT 4SM BR OVC015
     FM221400 34005KT 4SM BR OVC007
     FM221600 36006KT P6SM OVC015
     FM221900 01008KT P6SM OVC050=



000
FTUS44 KJAN 212300
TAFJAN
TAF
KJAN 212320Z 2200/2224 18006KT P6SM VCSH SCT040 SCT100
     FM220400 19003KT P6SM VCSH OVC100
     FM220800 20003KT P6SM OVC050
     FM221200 VRB04KT 6SM BR OVC015
     FM221500 31006KT P6SM BKN025
     FM221900 33007KT P6SM OVC050=



000
FTUS44 KJAN 211900 AAB
TAFHBG
TAF AMD
KHBG 211933Z 2120/2218 19006KT P6SM BKN050
     FM220000 17003KT P6SM FEW050 SCT120
     FM221000 VRB03KT 1/2SM FG BKN005
     FM221500 27006KT P6SM -SHRA OVC050=



000
FTUS44 KJAN 211900 AAA
TAFHBG
TAF AMD
KHBG 211932Z 2120/2218 19006KT P6SM SCT030 SCT250
     FM220000 17003KT P6SM FEW050 SCT120
     FM221000 VRB03KT 1/2SM FG BKN005
     FM221500 27006KT P6SM -SHRA OVC050=



000
FTUS44 KJAN 211700
TAFGWO
TAF
KGWO 211732Z 2118/2218 19009KT P6SM VCSH OVC100
     FM212100 20007KT P6SM SCT050 SCT120
     FM220500 19005KT P6SM -SHRA SCT030 BKN050 OVC120
     FM221000 VRB03KT P6SM -SHRA OVC007
     FM221400 35008KT P6SM OVC015=



000
FTUS44 KJAN 211700
TAFGLH
TAF
KGLH 211732Z 2118/2218 20010KT P6SM VCSH BKN070 OVC100
     FM212000 20010KT P6SM SCT050 SCT120
     FM220200 20006KT P6SM -SHRA SCT030 BKN050 OVC120
     FM221000 VRB03KT P6SM -SHRA OVC007
     FM221400 35008KT P6SM OVC015=



000
FTUS44 KJAN 211700
TAFJAN
TAF
KJAN 211732Z 2118/2218 18005KT P6SM SCT050 BKN100
     FM220000 19004KT P6SM FEW050 SCT120
     FM220900 20005KT 6SM -SHRA BR BKN025 OVC100
     FM221100 VRB05KT P6SM -SHRA OVC015=



000
FTUS44 KJAN 211700
TAFMEI
TAF
KMEI 211732Z 2118/2218 19006KT P6SM SCT030 SCT250
     FM220000 18003KT P6SM FEW050 SCT120
     FM221000 VRB03KT 5SM -SHRA BR BKN010 OVC100
     FM221400 25005KT P6SM -SHRA OVC025=



000
FTUS44 KJAN 211700
TAFHBG
TAF
KHBG 211732Z 2118/2218 19006KT P6SM SCT030 SCT250
     FM220000 17003KT P6SM FEW050 SCT120
     FM221000 VRB03KT 2SM BR BKN005
     FM221500 27006KT P6SM -SHRA OVC050=



000
FTUS44 KJAN 211400 AAB
TAFJAN
TAF AMD
KJAN 211459Z 2115/2212 18008KT P6SM SCT009 SCT250
     FM211700 18005KT P6SM SCT005 SCT050
     FM220000 19004KT P6SM FEW050 SCT120
     FM220900 20005KT 6SM -SHRA BR BKN025 OVC100=



000
FTUS44 KJAN 211300 AAA
TAFJAN
TAF AMD
KJAN 211356Z 2114/2212 18008KT P6SM BKN005
     FM211500 18005KT P6SM SCT005 SCT050
     FM220000 19004KT P6SM FEW050 SCT120
     FM220900 20005KT 6SM -SHRA BR BKN025 OVC100=



000
FTUS44 KJAN 211200 AAA
TAFJAN
TAF AMD
KJAN 211209Z 2112/2212 18008KT P6SM SCT030 SCT250
     FM220000 19004KT P6SM FEW050 SCT120
     FM220900 20005KT 6SM -SHRA BR BKN025 OVC100=



000
FTUS44 KJAN 211200 AAA
TAFHBG
TAF AMD
KHBG 211209Z 2112/2212 19006KT P6SM SCT030 SCT250
     FM220000 17003KT P6SM FEW050 SCT120
     FM221000 VRB03KT 2SM BR BKN005=



000
FTUS44 KJAN 211100 RRA
TAFHBG
TAF
KHBG 211143Z 2112/2212 VRB03KT 4SM BR VV003
     FM211330 19006KT P6SM SCT030 SCT250
     FM220000 17003KT P6SM FEW050 SCT120
     FM221000 VRB03KT 2SM BR BKN005=



000
FTUS44 KJAN 211100 RRA
TAFMEI
TAF
KMEI 211143Z 2112/2212 15003KT 5SM BR SCT005
     FM211400 19006KT P6SM SCT030 SCT250
     FM220000 18003KT P6SM FEW050 SCT120
     FM221000 VRB03KT 5SM BR BKN010 OVC100=



000
FTUS44 KJAN 211100 RRA
TAFGWO
TAF
KGWO 211143Z 2112/2212 18007KT P6SM SCT100 BKN250
     FM211530 19009KT P6SM VCSH OVC100
     FM212100 20007KT P6SM SCT050 SCT120
     FM220500 19005KT P6SM -SHRA VCTS SCT030 BKN050CB OVC120=



000
FTUS44 KJAN 211100 RRA
TAFJAN
TAF
KJAN 211143Z 2112/2212 17006KT 4SM BR BKN004
     FM211400 18008KT P6SM SCT030 SCT250
     FM220000 19004KT P6SM FEW050 SCT120
     FM220900 20005KT 6SM -SHRA BR BKN025 OVC100=



000
FTUS44 KJAN 211100 RRA
TAFGLH
TAF
KGLH 211143Z 2112/2212 18007KT P6SM BKN100 BKN250
     FM211430 20010KT P6SM VCSH OVC100
     FM211930 20010KT P6SM SCT050 SCT120
     FM220200 20006KT P6SM -SHRA VCTS SCT030 BKN050CB OVC120=



000
FTUS44 KJAN 211000 AAA
TAFHBG
TAF AMD
KHBG 211026Z 2110/2206 00000KT P6SM SKC
     FM211130 15003KT 1SM BR VV003
     FM211300 17004KT 5SM BR BKN006
     FM211430 19006KT P6SM SCT030 SCT250
     FM220000 17003KT P6SM FEW050 SCT120=



000
FTUS44 KJAN 211000 AAA
TAFJAN
TAF AMD
KJAN 211024Z 2110/2206 17005KT P6SM SKC
     FM211130 16004KT 4SM BR BKN004
     FM211330 17006KT P6SM SCT030 SCT250
     FM211800 19006KT P6SM SCT050 BKN120=



000
FTUS44 KJAN 210500
TAFGLH
TAF
KGLH 210533Z 2106/2206 15005KT P6SM SCT250
     FM211300 19011KT P6SM VCSH OVC100
     FM211800 21013KT P6SM SCT050 SCT120
     FM220000 20006KT P6SM -SHRA VCTS SCT030 BKN050CB OVC120=



000
FTUS44 KJAN 210500
TAFHBG
TAF
KHBG 210533Z 2106/2206 VRB03KT P6SM FEW250
     FM210930 15003KT 1SM BR VV003
     FM211300 17004KT 5SM BR BKN006
     FM211430 19006KT P6SM SCT030 SCT250
     FM220000 17003KT P6SM FEW050 SCT120=



000
FTUS44 KJAN 210500
TAFGWO
TAF
KGWO 210533Z 2106/2206 13004KT P6SM SCT250
     FM211430 19009KT P6SM VCSH OVC100
     FM212000 20009KT P6SM SCT050 SCT120
     FM220200 18005KT P6SM -SHRA VCTS SCT030 BKN050CB OVC120=



000
FTUS44 KJAN 210500
TAFJAN
TAF
KJAN 210533Z 2106/2206 14003KT P6SM FEW250
     FM211000 15003KT 4SM BR BKN005
     FM211330 17006KT P6SM SCT030 SCT250
     FM211800 19006KT P6SM SCT050 BKN120=



000
FTUS44 KJAN 210500
TAFMEI
TAF
KMEI 210533Z 2106/2206 VRB03KT P6SM FEW250
     FM211130 16003KT 4SM BR SCT005
     FM211330 18006KT P6SM SCT030 SCT250
     FM211900 20007KT P6SM SCT050 BKN120
     FM220000 18003KT P6SM FEW050 SCT120=



000
FTUS44 KJAN 202300
TAFHBG
TAF
KHBG 202320Z 2100/2124 08003KT P6SM SKC
     FM210800 00000KT 5SM BR SKC
     FM211400 18005KT P6SM SCT035 BKN250=



000
FTUS44 KJAN 202300
TAFMEI
TAF
KMEI 202320Z 2100/2124 00000KT P6SM SKC
     FM210800 00000KT 5SM BR SKC
     FM211400 18005KT P6SM SCT035 BKN200=



000
FTUS44 KJAN 202300
TAFGLH
TAF
KGLH 202320Z 2100/2124 15005KT P6SM FEW250
     FM211100 17007KT P6SM OVC100
     FM211600 21011KT P6SM VCSH BKN050=



000
FTUS44 KJAN 202300
TAFGWO
TAF
KGWO 202320Z 2100/2124 15003KT P6SM OVC250
     FM211200 17007KT P6SM OVC100
     FM211600 23006KT P6SM VCSH BKN050=



000
FTUS44 KJAN 202300
TAFJAN
TAF
KJAN 202320Z 2100/2124 13003KT P6SM SKC
     FM210900 00000KT 4SM BR BKN200
     FM211400 15005KT P6SM BKN200=



000
FTUS44 KJAN 201700
TAFJAN
TAF
KJAN 201720Z 2018/2118 08007KT P6SM SKC
     FM210100 11003KT P6SM SKC
     FM210900 14002KT 4SM BR BKN200
     FM211400 15005KT P6SM BKN200=



000
FTUS44 KJAN 201700
TAFGLH
TAF
KGLH 201720Z 2018/2118 15005KT P6SM OVC250
     FM211100 17007KT P6SM OVC100=



000
FTUS44 KJAN 201700
TAFMEI
TAF
KMEI 201720Z 2018/2118 08006KT P6SM SKC
     FM210300 00000KT P6SM SKC
     FM210800 18002KT 5SM BR SKC
     FM211400 18005KT P6SM SCT035 BKN200=



000
FTUS44 KJAN 201700
TAFGWO
TAF
KGWO 201720Z 2018/2118 15005KT P6SM OVC250
     FM211200 17007KT P6SM OVC100=



000
FTUS44 KJAN 201700
TAFHBG
TAF
KHBG 201720Z 2018/2118 08006KT P6SM SKC
     FM210100 03004KT P6SM SKC
     FM210800 18002KT 5SM BR SKC
     FM211400 18005KT P6SM SCT035 BKN250=



000
FTUS44 KJAN 201100
TAFHBG
TAF
KHBG 201139Z 2012/2112 00000KT 6SM BR SKC
     FM201300 08006KT P6SM SKC
     FM210100 03004KT P6SM SKC=



000
FTUS44 KJAN 201100
TAFMEI
TAF
KMEI 201139Z 2012/2112 00000KT P6SM SKC
     FM201400 08006KT P6SM SKC
     FM210300 00000KT P6SM SKC
     FM210800 18002KT 5SM BR SKC=



000
FTUS44 KJAN 201100
TAFGWO
TAF
KGWO 201139Z 2012/2112 04004KT P6SM SKC
     FM201500 15006KT P6SM FEW250
     FM210100 14004KT P6SM SCT100=



000
FTUS44 KJAN 201100
TAFJAN
TAF
KJAN 201139Z 2012/2112 00000KT 5SM BR SKC
     FM201300 08007KT P6SM SKC
     FM210100 11003KT P6SM SKC
     FM210900 14002KT 4SM BR BKN200=



000
FTUS44 KJAN 201100
TAFGLH
TAF
KGLH 201139Z 2012/2112 00000KT P6SM SKC
     FM201500 17006KT P6SM FEW250
     FM210200 15003KT P6SM SCT100=



000
FTUS44 KJAN 201100 AAB
TAFHBG
TAF AMD
KHBG 201108Z 2011/2106 00000KT P6SM SKC
     FM201400 08006KT P6SM SKC=



000
FTUS44 KJAN 201000 AAA
TAFHBG
TAF AMD
KHBG 201002Z 2010/2106 00000KT P6SM SKC
     FM201100 VRB03KT 2SM BR SKC
     FM201200 00000KT 1/4SM FG SKC
     FM201400 08006KT P6SM SKC=



000
FTUS44 KJAN 201000 AAA
TAFMEI
TAF AMD
KMEI 201002Z 2010/2106 00000KT P6SM SKC
     FM201400 08006KT P6SM SKC=



000
FTUS44 KJAN 200800 AAA
TAFJAN
TAF AMD
KJAN 200854Z 2009/2106 00000KT 2SM BR SKC
     FM201400 08007KT P6SM SKC=



    US Dept of Commerce
    National Oceanic and Atmospheric Administration
    National Weather Service
    1325 East West Highway
    Silver Spring, MD 20910
    Page Author: NWS Internet Services Team
Disclaimer
Information Quality
Credits
Glossary
Privacy Policy
Freedom of Information Act (FOIA)
About Us
Career Opportunities